sensor_id;sensor_type;location;lat;lon;timestamp;P1;durP1;ratioP1;P2;durP2;ratioP2
76447;SDS011;65284;51.040;13.722;2024-02-15T00:02:15;14.55;;;7.43;;
76447;SDS011;65284;51.040;13.722;2024-02-15T00:04:42;12.95;;;7.07;;
76447;SDS011;65284;51.040;13.722;2024-02-15T00:07:08;12.93;;;6.72;;
76447;SDS011;65284;51.040;13.722;2024-02-15T00:09:35;13.20;;;6.53;;
76447;SDS011;65284;51.040;13.722;2024-02-15T00:12:02;12.55;;;6.55;;
76447;SDS011;65284;51.040;13.722;2024-02-15T00:14:29;13.10;;;7.47;;
76447;SDS011;65284;51.040;13.722;2024-02-15T00:16:55;13.68;;;8.23;;
76447;SDS011;65284;51.040;13.722;2024-02-15T00:19:22;13.75;;;6.95;;
76447;SDS011;65284;51.040;13.722;2024-02-15T00:21:49;9.95;;;6.00;;
76447;SDS011;65284;51.040;13.722;2024-02-15T00:24:15;11.07;;;6.20;;
76447;SDS011;65284;51.040;13.722;2024-02-15T00:26:42;11.90;;;6.70;;
76447;SDS011;65284;51.040;13.722;2024-02-15T00:29:09;11.00;;;6.20;;
76447;SDS011;65284;51.040;13.722;2024-02-15T00:31:36;12.60;;;6.57;;
76447;SDS011;65284;51.040;13.722;2024-02-15T00:34:05;9.68;;;5.97;;
76447;SDS011;65284;51.040;13.722;2024-02-15T00:36:32;11.27;;;6.25;;
76447;SDS011;65284;51.040;13.722;2024-02-15T00:38:59;11.57;;;6.28;;
76447;SDS011;65284;51.040;13.722;2024-02-15T00:41:26;10.35;;;6.05;;
76447;SDS011;65284;51.040;13.722;2024-02-15T00:43:54;10.05;;;6.22;;
76447;SDS011;65284;51.040;13.722;2024-02-15T00:46:20;12.55;;;6.22;;
76447;SDS011;65284;51.040;13.722;2024-02-15T00:48:47;11.80;;;6.13;;
76447;SDS011;65284;51.040;13.722;2024-02-15T00:51:14;12.52;;;7.07;;
76447;SDS011;65284;51.040;13.722;2024-02-15T00:53:40;11.25;;;6.50;;
76447;SDS011;65284;51.040;13.722;2024-02-15T00:56:07;12.23;;;6.90;;
76447;SDS011;65284;51.040;13.722;2024-02-15T00:58:34;12.45;;;6.28;;
76447;SDS011;65284;51.040;13.722;2024-02-15T01:01:00;10.07;;;6.13;;
76447;SDS011;65284;51.040;13.722;2024-02-15T01:03:27;10.60;;;6.05;;
76447;SDS011;65284;51.040;13.722;2024-02-15T01:05:53;12.05;;;6.63;;
76447;SDS011;65284;51.040;13.722;2024-02-15T01:08:20;11.32;;;6.60;;
76447;SDS011;65284;51.040;13.722;2024-02-15T01:10:46;12.68;;;7.13;;
76447;SDS011;65284;51.040;13.722;2024-02-15T01:13:13;12.75;;;7.07;;
76447;SDS011;65284;51.040;13.722;2024-02-15T01:15:39;11.50;;;6.40;;
76447;SDS011;65284;51.040;13.722;2024-02-15T01:18:07;11.95;;;6.53;;
76447;SDS011;65284;51.040;13.722;2024-02-15T01:20:34;16.13;;;6.65;;
76447;SDS011;65284;51.040;13.722;2024-02-15T01:23:02;12.52;;;6.95;;
76447;SDS011;65284;51.040;13.722;2024-02-15T01:25:29;11.35;;;6.60;;
76447;SDS011;65284;51.040;13.722;2024-02-15T01:27:56;11.93;;;6.70;;
76447;SDS011;65284;51.040;13.722;2024-02-15T01:30:22;12.18;;;7.03;;
76447;SDS011;65284;51.040;13.722;2024-02-15T01:32:49;12.18;;;6.85;;
76447;SDS011;65284;51.040;13.722;2024-02-15T01:35:16;12.63;;;6.75;;
76447;SDS011;65284;51.040;13.722;2024-02-15T01:37:42;11.57;;;6.88;;
76447;SDS011;65284;51.040;13.722;2024-02-15T01:40:09;12.45;;;6.75;;
76447;SDS011;65284;51.040;13.722;2024-02-15T01:42:38;11.70;;;6.80;;
76447;SDS011;65284;51.040;13.722;2024-02-15T01:45:05;12.70;;;7.00;;
76447;SDS011;65284;51.040;13.722;2024-02-15T01:47:32;14.07;;;6.72;;
76447;SDS011;65284;51.040;13.722;2024-02-15T01:49:59;13.15;;;6.78;;
76447;SDS011;65284;51.040;13.722;2024-02-15T01:52:26;12.65;;;7.45;;
76447;SDS011;65284;51.040;13.722;2024-02-15T01:54:52;12.20;;;7.15;;
76447;SDS011;65284;51.040;13.722;2024-02-15T01:57:20;12.82;;;7.18;;
76447;SDS011;65284;51.040;13.722;2024-02-15T01:59:50;13.52;;;7.45;;
76447;SDS011;65284;51.040;13.722;2024-02-15T02:02:18;14.32;;;7.47;;
76447;SDS011;65284;51.040;13.722;2024-02-15T02:04:46;14.27;;;7.55;;
76447;SDS011;65284;51.040;13.722;2024-02-15T02:07:13;15.35;;;7.68;;
76447;SDS011;65284;51.040;13.722;2024-02-15T02:09:40;14.95;;;7.88;;
76447;SDS011;65284;51.040;13.722;2024-02-15T02:12:07;14.15;;;8.35;;
76447;SDS011;65284;51.040;13.722;2024-02-15T02:14:34;14.40;;;7.97;;
76447;SDS011;65284;51.040;13.722;2024-02-15T02:17:13;13.98;;;7.70;;
76447;SDS011;65284;51.040;13.722;2024-02-15T02:19:40;13.20;;;6.70;;
76447;SDS011;65284;51.040;13.722;2024-02-15T02:22:08;12.65;;;7.13;;
76447;SDS011;65284;51.040;13.722;2024-02-15T02:24:36;13.25;;;7.63;;
76447;SDS011;65284;51.040;13.722;2024-02-15T02:27:12;13.18;;;7.20;;
76447;SDS011;65284;51.040;13.722;2024-02-15T02:29:43;13.65;;;7.70;;
76447;SDS011;65284;51.040;13.722;2024-02-15T02:32:12;15.10;;;7.82;;
76447;SDS011;65284;51.040;13.722;2024-02-15T02:34:38;14.77;;;7.90;;
76447;SDS011;65284;51.040;13.722;2024-02-15T02:37:07;13.07;;;7.43;;
76447;SDS011;65284;51.040;13.722;2024-02-15T02:39:34;14.57;;;8.38;;
76447;SDS011;65284;51.040;13.722;2024-02-15T02:42:01;13.35;;;8.02;;
76447;SDS011;65284;51.040;13.722;2024-02-15T02:44:27;14.52;;;8.02;;
76447;SDS011;65284;51.040;13.722;2024-02-15T02:46:54;13.95;;;8.05;;
76447;SDS011;65284;51.040;13.722;2024-02-15T02:49:21;15.45;;;9.05;;
76447;SDS011;65284;51.040;13.722;2024-02-15T02:51:48;15.30;;;8.65;;
76447;SDS011;65284;51.040;13.722;2024-02-15T02:54:14;14.98;;;8.20;;
76447;SDS011;65284;51.040;13.722;2024-02-15T02:56:41;14.13;;;7.68;;
76447;SDS011;65284;51.040;13.722;2024-02-15T02:59:09;14.45;;;8.25;;
76447;SDS011;65284;51.040;13.722;2024-02-15T03:01:36;13.35;;;7.88;;
76447;SDS011;65284;51.040;13.722;2024-02-15T03:04:03;13.55;;;8.02;;
76447;SDS011;65284;51.040;13.722;2024-02-15T03:06:29;14.93;;;7.95;;
76447;SDS011;65284;51.040;13.722;2024-02-15T03:08:56;14.82;;;8.43;;
76447;SDS011;65284;51.040;13.722;2024-02-15T03:11:24;14.63;;;8.02;;
76447;SDS011;65284;51.040;13.722;2024-02-15T03:13:50;12.65;;;7.50;;
76447;SDS011;65284;51.040;13.722;2024-02-15T03:16:17;14.35;;;8.07;;
76447;SDS011;65284;51.040;13.722;2024-02-15T03:18:43;13.93;;;8.00;;
76447;SDS011;65284;51.040;13.722;2024-02-15T03:21:10;13.27;;;7.78;;
76447;SDS011;65284;51.040;13.722;2024-02-15T03:23:37;14.45;;;7.38;;
76447;SDS011;65284;51.040;13.722;2024-02-15T03:26:03;11.98;;;7.22;;
76447;SDS011;65284;51.040;13.722;2024-02-15T03:28:30;14.13;;;7.18;;
76447;SDS011;65284;51.040;13.722;2024-02-15T03:30:56;14.27;;;7.25;;
76447;SDS011;65284;51.040;13.722;2024-02-15T03:33:23;9.57;;;5.85;;
76447;SDS011;65284;51.040;13.722;2024-02-15T03:35:53;14.82;;;7.03;;
76447;SDS011;65284;51.040;13.722;2024-02-15T03:38:19;12.85;;;6.95;;
76447;SDS011;65284;51.040;13.722;2024-02-15T03:40:46;12.65;;;7.18;;
76447;SDS011;65284;51.040;13.722;2024-02-15T03:43:12;14.38;;;7.60;;
76447;SDS011;65284;51.040;13.722;2024-02-15T03:45:39;15.75;;;7.90;;
76447;SDS011;65284;51.040;13.722;2024-02-15T03:48:07;11.80;;;7.30;;
76447;SDS011;65284;51.040;13.722;2024-02-15T03:50:35;13.85;;;7.72;;
76447;SDS011;65284;51.040;13.722;2024-02-15T03:53:02;14.55;;;7.60;;
76447;SDS011;65284;51.040;13.722;2024-02-15T03:55:28;14.25;;;7.75;;
76447;SDS011;65284;51.040;13.722;2024-02-15T03:57:55;14.68;;;7.93;;
76447;SDS011;65284;51.040;13.722;2024-02-15T04:00:23;11.77;;;7.13;;
76447;SDS011;65284;51.040;13.722;2024-02-15T04:02:51;11.38;;;7.18;;
76447;SDS011;65284;51.040;13.722;2024-02-15T04:05:17;13.18;;;7.30;;
76447;SDS011;65284;51.040;13.722;2024-02-15T04:07:45;10.85;;;6.55;;
76447;SDS011;65284;51.040;13.722;2024-02-15T04:10:12;12.93;;;7.18;;
76447;SDS011;65284;51.040;13.722;2024-02-15T04:12:38;25.58;;;15.45;;
76447;SDS011;65284;51.040;13.722;2024-02-15T04:17:39;12.70;;;7.10;;
76447;SDS011;65284;51.040;13.722;2024-02-15T04:20:07;11.93;;;7.22;;
76447;SDS011;65284;51.040;13.722;2024-02-15T04:22:35;9.13;;;5.25;;
76447;SDS011;65284;51.040;13.722;2024-02-15T04:25:04;11.50;;;6.15;;
76447;SDS011;65284;51.040;13.722;2024-02-15T04:27:32;13.57;;;6.65;;
76447;SDS011;65284;51.040;13.722;2024-02-15T04:29:59;12.73;;;6.95;;
76447;SDS011;65284;51.040;13.722;2024-02-15T04:32:26;13.98;;;7.30;;
76447;SDS011;65284;51.040;13.722;2024-02-15T04:34:52;10.95;;;6.35;;
76447;SDS011;65284;51.040;13.722;2024-02-15T04:37:19;12.38;;;6.35;;
76447;SDS011;65284;51.040;13.722;2024-02-15T04:39:46;13.43;;;6.88;;
76447;SDS011;65284;51.040;13.722;2024-02-15T04:42:13;12.77;;;7.25;;
76447;SDS011;65284;51.040;13.722;2024-02-15T04:44:41;14.30;;;6.95;;
76447;SDS011;65284;51.040;13.722;2024-02-15T04:47:08;12.65;;;7.20;;
76447;SDS011;65284;51.040;13.722;2024-02-15T04:49:34;12.68;;;6.90;;
76447;SDS011;65284;51.040;13.722;2024-02-15T04:52:04;12.45;;;7.43;;
76447;SDS011;65284;51.040;13.722;2024-02-15T04:54:32;13.20;;;7.15;;
76447;SDS011;65284;51.040;13.722;2024-02-15T04:56:59;13.43;;;7.75;;
76447;SDS011;65284;51.040;13.722;2024-02-15T04:59:27;12.60;;;7.47;;
76447;SDS011;65284;51.040;13.722;2024-02-15T05:01:55;12.35;;;7.43;;
76447;SDS011;65284;51.040;13.722;2024-02-15T05:04:22;13.77;;;7.90;;
76447;SDS011;65284;51.040;13.722;2024-02-15T05:06:50;13.18;;;7.70;;
76447;SDS011;65284;51.040;13.722;2024-02-15T05:09:17;14.45;;;8.23;;
76447;SDS011;65284;51.040;13.722;2024-02-15T05:11:44;12.05;;;7.50;;
76447;SDS011;65284;51.040;13.722;2024-02-15T05:14:15;13.18;;;7.03;;
76447;SDS011;65284;51.040;13.722;2024-02-15T05:16:46;13.48;;;7.22;;
76447;SDS011;65284;51.040;13.722;2024-02-15T05:19:17;14.07;;;7.25;;
76447;SDS011;65284;51.040;13.722;2024-02-15T05:21:45;12.20;;;7.20;;
76447;SDS011;65284;51.040;13.722;2024-02-15T05:24:15;13.18;;;7.10;;
76447;SDS011;65284;51.040;13.722;2024-02-15T05:26:43;12.82;;;7.53;;
76447;SDS011;65284;51.040;13.722;2024-02-15T05:29:13;14.27;;;7.35;;
76447;SDS011;65284;51.040;13.722;2024-02-15T05:31:42;15.60;;;7.57;;
76447;SDS011;65284;51.040;13.722;2024-02-15T05:34:10;14.88;;;7.75;;
76447;SDS011;65284;51.040;13.722;2024-02-15T05:39:05;15.40;;;7.80;;
76447;SDS011;65284;51.040;13.722;2024-02-15T05:41:31;14.43;;;7.53;;
76447;SDS011;65284;51.040;13.722;2024-02-15T05:46:28;14.10;;;7.38;;
76447;SDS011;65284;51.040;13.722;2024-02-15T05:48:54;16.95;;;7.50;;
76447;SDS011;65284;51.040;13.722;2024-02-15T05:51:21;15.48;;;7.65;;
76447;SDS011;65284;51.040;13.722;2024-02-15T05:53:49;14.75;;;8.20;;
76447;SDS011;65284;51.040;13.722;2024-02-15T05:56:16;14.50;;;8.32;;
76447;SDS011;65284;51.040;13.722;2024-02-15T05:58:43;14.73;;;8.38;;
76447;SDS011;65284;51.040;13.722;2024-02-15T06:01:09;15.52;;;8.23;;
76447;SDS011;65284;51.040;13.722;2024-02-15T06:06:06;17.65;;;8.45;;
76447;SDS011;65284;51.040;13.722;2024-02-15T06:08:33;14.43;;;7.93;;
76447;SDS011;65284;51.040;13.722;2024-02-15T06:11:01;13.68;;;8.13;;
76447;SDS011;65284;51.040;13.722;2024-02-15T06:13:28;15.80;;;8.18;;
76447;SDS011;65284;51.040;13.722;2024-02-15T06:15:54;15.98;;;8.30;;
76447;SDS011;65284;51.040;13.722;2024-02-15T06:18:22;17.90;;;9.15;;
76447;SDS011;65284;51.040;13.722;2024-02-15T06:20:51;17.25;;;8.55;;
76447;SDS011;65284;51.040;13.722;2024-02-15T06:23:21;17.25;;;9.32;;
76447;SDS011;65284;51.040;13.722;2024-02-15T06:25:50;17.38;;;9.38;;
76447;SDS011;65284;51.040;13.722;2024-02-15T06:28:19;18.13;;;9.75;;
76447;SDS011;65284;51.040;13.722;2024-02-15T06:31:08;18.48;;;9.70;;
76447;SDS011;65284;51.040;13.722;2024-02-15T06:34:05;18.73;;;9.73;;
76447;SDS011;65284;51.040;13.722;2024-02-15T06:36:52;24.00;;;10.55;;
76447;SDS011;65284;51.040;13.722;2024-02-15T06:39:38;19.73;;;10.73;;
76447;SDS011;65284;51.040;13.722;2024-02-15T06:42:11;17.95;;;9.93;;
76447;SDS011;65284;51.040;13.722;2024-02-15T06:44:43;18.13;;;9.57;;
76447;SDS011;65284;51.040;13.722;2024-02-15T06:47:10;18.23;;;9.68;;
76447;SDS011;65284;51.040;13.722;2024-02-15T06:49:38;18.85;;;9.60;;
76447;SDS011;65284;51.040;13.722;2024-02-15T06:52:09;18.77;;;9.80;;
76447;SDS011;65284;51.040;13.722;2024-02-15T06:54:41;20.02;;;10.05;;
76447;SDS011;65284;51.040;13.722;2024-02-15T06:57:08;18.55;;;10.10;;
76447;SDS011;65284;51.040;13.722;2024-02-15T06:59:35;20.25;;;10.63;;
76447;SDS011;65284;51.040;13.722;2024-02-15T07:02:03;18.85;;;10.45;;
76447;SDS011;65284;51.040;13.722;2024-02-15T07:04:34;21.02;;;10.55;;
76447;SDS011;65284;51.040;13.722;2024-02-15T07:07:03;19.58;;;10.35;;
76447;SDS011;65284;51.040;13.722;2024-02-15T07:09:29;19.42;;;10.88;;
76447;SDS011;65284;51.040;13.722;2024-02-15T07:11:56;17.67;;;10.48;;
76447;SDS011;65284;51.040;13.722;2024-02-15T07:14:24;19.50;;;10.52;;
76447;SDS011;65284;51.040;13.722;2024-02-15T07:16:51;20.83;;;10.68;;
76447;SDS011;65284;51.040;13.722;2024-02-15T07:19:18;20.27;;;12.00;;
76447;SDS011;65284;51.040;13.722;2024-02-15T07:21:45;20.88;;;11.52;;
76447;SDS011;65284;51.040;13.722;2024-02-15T07:24:13;20.15;;;11.07;;
76447;SDS011;65284;51.040;13.722;2024-02-15T07:26:40;20.65;;;11.05;;
76447;SDS011;65284;51.040;13.722;2024-02-15T07:29:06;18.75;;;10.35;;
76447;SDS011;65284;51.040;13.722;2024-02-15T07:31:34;18.35;;;9.90;;
76447;SDS011;65284;51.040;13.722;2024-02-15T07:34:01;19.75;;;10.65;;
76447;SDS011;65284;51.040;13.722;2024-02-15T07:36:29;17.88;;;10.02;;
76447;SDS011;65284;51.040;13.722;2024-02-15T07:38:56;19.80;;;10.18;;
76447;SDS011;65284;51.040;13.722;2024-02-15T07:41:28;19.10;;;10.25;;
76447;SDS011;65284;51.040;13.722;2024-02-15T07:43:55;19.02;;;9.98;;
76447;SDS011;65284;51.040;13.722;2024-02-15T07:46:22;18.85;;;10.10;;
76447;SDS011;65284;51.040;13.722;2024-02-15T07:48:48;20.70;;;11.02;;
76447;SDS011;65284;51.040;13.722;2024-02-15T07:51:16;23.38;;;10.82;;
76447;SDS011;65284;51.040;13.722;2024-02-15T07:53:44;17.50;;;9.60;;
76447;SDS011;65284;51.040;13.722;2024-02-15T07:56:11;19.88;;;10.55;;
76447;SDS011;65284;51.040;13.722;2024-02-15T07:58:43;18.83;;;10.18;;
76447;SDS011;65284;51.040;13.722;2024-02-15T08:01:18;23.80;;;12.07;;
76447;SDS011;65284;51.040;13.722;2024-02-15T08:03:49;18.73;;;10.23;;
76447;SDS011;65284;51.040;13.722;2024-02-15T08:06:16;18.20;;;10.73;;
76447;SDS011;65284;51.040;13.722;2024-02-15T08:08:44;29.80;;;14.80;;
76447;SDS011;65284;51.040;13.722;2024-02-15T08:11:13;22.02;;;12.90;;
76447;SDS011;65284;51.040;13.722;2024-02-15T08:13:49;25.30;;;14.57;;
76447;SDS011;65284;51.040;13.722;2024-02-15T08:16:20;30.38;;;15.95;;
76447;SDS011;65284;51.040;13.722;2024-02-15T08:18:53;23.55;;;12.60;;
76447;SDS011;65284;51.040;13.722;2024-02-15T08:21:27;25.73;;;13.73;;
76447;SDS011;65284;51.040;13.722;2024-02-15T08:23:59;26.20;;;14.57;;
76447;SDS011;65284;51.040;13.722;2024-02-15T08:26:27;21.08;;;12.13;;
76447;SDS011;65284;51.040;13.722;2024-02-15T08:28:56;20.10;;;11.23;;
76447;SDS011;65284;51.040;13.722;2024-02-15T08:31:22;21.45;;;12.02;;
76447;SDS011;65284;51.040;13.722;2024-02-15T08:33:49;23.58;;;12.32;;
76447;SDS011;65284;51.040;13.722;2024-02-15T08:36:16;23.92;;;13.57;;
76447;SDS011;65284;51.040;13.722;2024-02-15T08:38:43;19.38;;;11.10;;
76447;SDS011;65284;51.040;13.722;2024-02-15T08:41:11;21.45;;;11.52;;
76447;SDS011;65284;51.040;13.722;2024-02-15T08:43:38;27.55;;;14.75;;
76447;SDS011;65284;51.040;13.722;2024-02-15T08:46:07;27.63;;;14.35;;
76447;SDS011;65284;51.040;13.722;2024-02-15T08:48:34;25.73;;;12.98;;
76447;SDS011;65284;51.040;13.722;2024-02-15T08:51:02;22.50;;;11.95;;
76447;SDS011;65284;51.040;13.722;2024-02-15T08:53:29;24.77;;;12.85;;
76447;SDS011;65284;51.040;13.722;2024-02-15T08:55:55;20.92;;;12.23;;
76447;SDS011;65284;51.040;13.722;2024-02-15T08:58:21;21.77;;;12.02;;
76447;SDS011;65284;51.040;13.722;2024-02-15T09:00:48;20.42;;;11.30;;
76447;SDS011;65284;51.040;13.722;2024-02-15T09:03:15;20.60;;;12.10;;
76447;SDS011;65284;51.040;13.722;2024-02-15T09:05:41;33.88;;;19.27;;
76447;SDS011;65284;51.040;13.722;2024-02-15T09:08:08;24.02;;;13.05;;
76447;SDS011;65284;51.040;13.722;2024-02-15T09:10:34;47.40;;;24.75;;
76447;SDS011;65284;51.040;13.722;2024-02-15T09:13:02;28.73;;;15.68;;
76447;SDS011;65284;51.040;13.722;2024-02-15T09:15:29;22.75;;;12.90;;
76447;SDS011;65284;51.040;13.722;2024-02-15T09:17:57;19.50;;;10.65;;
76447;SDS011;65284;51.040;13.722;2024-02-15T09:20:24;19.98;;;10.95;;
76447;SDS011;65284;51.040;13.722;2024-02-15T09:22:54;21.00;;;11.70;;
76447;SDS011;65284;51.040;13.722;2024-02-15T09:25:21;21.45;;;11.93;;
76447;SDS011;65284;51.040;13.722;2024-02-15T09:27:49;21.13;;;11.40;;
76447;SDS011;65284;51.040;13.722;2024-02-15T09:30:16;18.88;;;10.15;;
76447;SDS011;65284;51.040;13.722;2024-02-15T09:32:44;16.75;;;9.63;;
76447;SDS011;65284;51.040;13.722;2024-02-15T09:35:11;15.57;;;8.50;;
76447;SDS011;65284;51.040;13.722;2024-02-15T09:37:45;16.17;;;9.30;;
76447;SDS011;65284;51.040;13.722;2024-02-15T09:40:16;19.00;;;10.10;;
76447;SDS011;65284;51.040;13.722;2024-02-15T09:42:44;16.20;;;8.90;;
76447;SDS011;65284;51.040;13.722;2024-02-15T09:45:12;16.83;;;8.68;;
76447;SDS011;65284;51.040;13.722;2024-02-15T09:47:40;16.08;;;8.68;;
76447;SDS011;65284;51.040;13.722;2024-02-15T09:50:08;15.32;;;8.05;;
76447;SDS011;65284;51.040;13.722;2024-02-15T09:52:51;16.42;;;8.70;;
76447;SDS011;65284;51.040;13.722;2024-02-15T09:55:19;18.50;;;9.75;;
76447;SDS011;65284;51.040;13.722;2024-02-15T09:57:46;14.90;;;8.45;;
76447;SDS011;65284;51.040;13.722;2024-02-15T10:00:13;17.98;;;9.40;;
76447;SDS011;65284;51.040;13.722;2024-02-15T10:02:44;18.20;;;9.35;;
76447;SDS011;65284;51.040;13.722;2024-02-15T10:05:13;16.60;;;8.30;;
76447;SDS011;65284;51.040;13.722;2024-02-15T10:07:43;16.02;;;8.52;;
76447;SDS011;65284;51.040;13.722;2024-02-15T10:10:20;16.05;;;8.00;;
76447;SDS011;65284;51.040;13.722;2024-02-15T10:12:51;14.95;;;8.05;;
76447;SDS011;65284;51.040;13.722;2024-02-15T10:15:26;13.43;;;8.15;;
76447;SDS011;65284;51.040;13.722;2024-02-15T10:18:03;24.70;;;13.82;;
76447;SDS011;65284;51.040;13.722;2024-02-15T10:20:32;30.42;;;16.88;;
76447;SDS011;65284;51.040;13.722;2024-02-15T10:25:27;21.20;;;10.18;;
76447;SDS011;65284;51.040;13.722;2024-02-15T10:28:05;24.17;;;10.45;;
76447;SDS011;65284;51.040;13.722;2024-02-15T10:30:34;21.10;;;10.48;;
76447;SDS011;65284;51.040;13.722;2024-02-15T10:33:05;20.38;;;10.40;;
76447;SDS011;65284;51.040;13.722;2024-02-15T10:35:34;18.27;;;9.32;;
76447;SDS011;65284;51.040;13.722;2024-02-15T10:38:05;18.75;;;10.02;;
76447;SDS011;65284;51.040;13.722;2024-02-15T10:40:37;19.30;;;9.25;;
76447;SDS011;65284;51.040;13.722;2024-02-15T10:43:04;17.98;;;9.90;;
76447;SDS011;65284;51.040;13.722;2024-02-15T10:45:32;16.83;;;9.30;;
76447;SDS011;65284;51.040;13.722;2024-02-15T10:48:00;16.27;;;9.52;;
76447;SDS011;65284;51.040;13.722;2024-02-15T10:50:27;15.63;;;9.05;;
76447;SDS011;65284;51.040;13.722;2024-02-15T10:52:54;19.50;;;10.48;;
76447;SDS011;65284;51.040;13.722;2024-02-15T10:55:34;15.18;;;8.82;;
76447;SDS011;65284;51.040;13.722;2024-02-15T10:58:05;23.85;;;11.63;;
76447;SDS011;65284;51.040;13.722;2024-02-15T11:00:33;28.88;;;16.90;;
76447;SDS011;65284;51.040;13.722;2024-02-15T11:03:03;18.67;;;10.00;;
76447;SDS011;65284;51.040;13.722;2024-02-15T11:05:35;15.38;;;8.93;;
76447;SDS011;65284;51.040;13.722;2024-02-15T11:08:09;16.23;;;9.07;;
76447;SDS011;65284;51.040;13.722;2024-02-15T11:10:37;14.70;;;8.43;;
76447;SDS011;65284;51.040;13.722;2024-02-15T11:13:05;14.48;;;8.18;;
76447;SDS011;65284;51.040;13.722;2024-02-15T11:15:44;14.45;;;7.43;;
76447;SDS011;65284;51.040;13.722;2024-02-15T11:18:13;13.50;;;7.63;;
76447;SDS011;65284;51.040;13.722;2024-02-15T11:20:59;13.13;;;7.75;;
76447;SDS011;65284;51.040;13.722;2024-02-15T11:23:26;14.43;;;7.70;;
76447;SDS011;65284;51.040;13.722;2024-02-15T11:26:02;11.93;;;5.97;;
76447;SDS011;65284;51.040;13.722;2024-02-15T11:30:56;14.27;;;7.50;;
76447;SDS011;65284;51.040;13.722;2024-02-15T11:36:05;7.50;;;4.25;;
76447;SDS011;65284;51.040;13.722;2024-02-15T11:38:34;5.13;;;2.38;;
76447;SDS011;65284;51.040;13.722;2024-02-15T11:41:04;7.35;;;2.25;;
76447;SDS011;65284;51.040;13.722;2024-02-15T11:43:48;3.10;;;1.60;;
76447;SDS011;65284;51.040;13.722;2024-02-15T11:46:27;4.18;;;1.30;;
76447;SDS011;65284;51.040;13.722;2024-02-15T11:48:58;4.28;;;1.50;;
76447;SDS011;65284;51.040;13.722;2024-02-15T11:54:03;2.28;;;0.95;;
76447;SDS011;65284;51.040;13.722;2024-02-15T11:59:15;2.65;;;1.10;;
76447;SDS011;65284;51.040;13.722;2024-02-15T12:01:59;2.55;;;1.20;;
76447;SDS011;65284;51.040;13.722;2024-02-15T12:04:44;3.40;;;1.83;;
76447;SDS011;65284;51.040;13.722;2024-02-15T12:07:29;2.35;;;1.15;;
76447;SDS011;65284;51.040;13.722;2024-02-15T12:10:17;3.80;;;1.10;;
76447;SDS011;65284;51.040;13.722;2024-02-15T12:13:02;3.58;;;1.00;;
76447;SDS011;65284;51.040;13.722;2024-02-15T12:15:57;2.50;;;1.20;;
76447;SDS011;65284;51.040;13.722;2024-02-15T12:18:43;1.98;;;0.90;;
76447;SDS011;65284;51.040;13.722;2024-02-15T12:21:12;3.67;;;1.10;;
76447;SDS011;65284;51.040;13.722;2024-02-15T12:23:44;2.15;;;1.00;;
76447;SDS011;65284;51.040;13.722;2024-02-15T12:26:12;2.38;;;1.08;;
76447;SDS011;65284;51.040;13.722;2024-02-15T12:28:41;2.90;;;1.00;;
76447;SDS011;65284;51.040;13.722;2024-02-15T12:31:13;1.95;;;1.10;;
76447;SDS011;65284;51.040;13.722;2024-02-15T12:33:40;2.70;;;1.23;;
76447;SDS011;65284;51.040;13.722;2024-02-15T12:36:07;3.05;;;1.15;;
76447;SDS011;65284;51.040;13.722;2024-02-15T12:38:35;2.50;;;1.20;;
76447;SDS011;65284;51.040;13.722;2024-02-15T12:41:16;2.00;;;1.10;;
76447;SDS011;65284;51.040;13.722;2024-02-15T12:43:45;2.38;;;1.20;;
76447;SDS011;65284;51.040;13.722;2024-02-15T12:46:11;2.85;;;1.05;;
76447;SDS011;65284;51.040;13.722;2024-02-15T12:48:38;2.67;;;1.08;;
76447;SDS011;65284;51.040;13.722;2024-02-15T12:51:13;2.80;;;1.05;;
76447;SDS011;65284;51.040;13.722;2024-02-15T12:53:41;3.65;;;1.00;;
76447;SDS011;65284;51.040;13.722;2024-02-15T12:56:08;3.08;;;1.20;;
76447;SDS011;65284;51.040;13.722;2024-02-15T12:58:37;2.55;;;1.30;;
76447;SDS011;65284;51.040;13.722;2024-02-15T13:01:05;3.05;;;1.20;;
76447;SDS011;65284;51.040;13.722;2024-02-15T13:03:31;2.70;;;1.20;;
76447;SDS011;65284;51.040;13.722;2024-02-15T13:05:58;2.88;;;1.13;;
76447;SDS011;65284;51.040;13.722;2024-02-15T13:08:25;2.58;;;1.17;;
76447;SDS011;65284;51.040;13.722;2024-02-15T13:10:51;2.78;;;0.98;;
76447;SDS011;65284;51.040;13.722;2024-02-15T13:13:18;2.65;;;1.10;;
76447;SDS011;65284;51.040;13.722;2024-02-15T13:15:47;3.10;;;1.60;;
76447;SDS011;65284;51.040;13.722;2024-02-15T13:18:18;2.45;;;1.30;;
76447;SDS011;65284;51.040;13.722;2024-02-15T13:20:45;2.85;;;1.20;;
76447;SDS011;65284;51.040;13.722;2024-02-15T13:23:11;2.88;;;1.15;;
76447;SDS011;65284;51.040;13.722;2024-02-15T13:25:42;2.00;;;1.00;;
76447;SDS011;65284;51.040;13.722;2024-02-15T13:28:11;3.65;;;1.20;;
76447;SDS011;65284;51.040;13.722;2024-02-15T13:30:39;2.60;;;1.33;;
76447;SDS011;65284;51.040;13.722;2024-02-15T13:33:05;2.72;;;1.15;;
76447;SDS011;65284;51.040;13.722;2024-02-15T13:35:32;3.85;;;1.27;;
76447;SDS011;65284;51.040;13.722;2024-02-15T13:37:59;2.85;;;1.33;;
76447;SDS011;65284;51.040;13.722;2024-02-15T13:40:26;2.47;;;1.30;;
76447;SDS011;65284;51.040;13.722;2024-02-15T13:42:54;2.85;;;1.38;;
76447;SDS011;65284;51.040;13.722;2024-02-15T13:45:26;4.53;;;2.00;;
76447;SDS011;65284;51.040;13.722;2024-02-15T13:47:59;6.72;;;2.13;;
76447;SDS011;65284;51.040;13.722;2024-02-15T13:50:31;4.10;;;1.40;;
76447;SDS011;65284;51.040;13.722;2024-02-15T13:52:58;3.28;;;0.75;;
76447;SDS011;65284;51.040;13.722;2024-02-15T13:55:25;1.92;;;0.90;;
76447;SDS011;65284;51.040;13.722;2024-02-15T13:57:52;1.85;;;0.75;;
76447;SDS011;65284;51.040;13.722;2024-02-15T14:00:19;3.15;;;0.80;;
76447;SDS011;65284;51.040;13.722;2024-02-15T14:02:52;2.70;;;0.70;;
76447;SDS011;65284;51.040;13.722;2024-02-15T14:05:21;3.58;;;0.90;;
76447;SDS011;65284;51.040;13.722;2024-02-15T14:07:50;2.55;;;0.73;;
76447;SDS011;65284;51.040;13.722;2024-02-15T14:10:19;2.47;;;0.90;;
76447;SDS011;65284;51.040;13.722;2024-02-15T14:12:47;2.67;;;0.82;;
76447;SDS011;65284;51.040;13.722;2024-02-15T14:15:15;4.90;;;1.90;;
76447;SDS011;65284;51.040;13.722;2024-02-15T14:17:44;2.58;;;1.13;;
76447;SDS011;65284;51.040;13.722;2024-02-15T14:20:11;1.75;;;0.90;;
76447;SDS011;65284;51.040;13.722;2024-02-15T14:22:41;2.55;;;1.00;;
76447;SDS011;65284;51.040;13.722;2024-02-15T14:25:10;3.95;;;0.90;;
76447;SDS011;65284;51.040;13.722;2024-02-15T14:27:38;6.82;;;2.47;;
76447;SDS011;65284;51.040;13.722;2024-02-15T14:30:05;3.55;;;1.17;;
76447;SDS011;65284;51.040;13.722;2024-02-15T14:32:51;3.70;;;1.00;;
76447;SDS011;65284;51.040;13.722;2024-02-15T14:35:31;3.30;;;0.90;;
76447;SDS011;65284;51.040;13.722;2024-02-15T14:38:05;1.75;;;0.85;;
76447;SDS011;65284;51.040;13.722;2024-02-15T14:40:35;3.47;;;1.10;;
76447;SDS011;65284;51.040;13.722;2024-02-15T14:43:05;2.70;;;1.10;;
76447;SDS011;65284;51.040;13.722;2024-02-15T14:45:34;4.13;;;1.02;;
76447;SDS011;65284;51.040;13.722;2024-02-15T14:48:02;3.08;;;1.10;;
76447;SDS011;65284;51.040;13.722;2024-02-15T14:50:29;2.40;;;1.05;;
76447;SDS011;65284;51.040;13.722;2024-02-15T14:52:56;3.92;;;1.50;;
76447;SDS011;65284;51.040;13.722;2024-02-15T14:55:23;2.70;;;1.00;;